Time;durP1;ratioP1;P1;durP2;ratioP2;P2;SDS_P1;SDS_P2;PMS_P1;PMS_P2;Temp;Humidity;BMP_temperature;BMP_pressure;BME280_temperature;BME280_humidity;BME280_pressure;Samples;Min_cycle;Max_cycle;Signal;HPM_P1;HPM_P2
2023/09/27 00:01:39;;;;;;;20.50;15.80;;;14.70;99.90;;;;;;5093313;28;20047;-66
2023/09/27 00:04:06;;;;;;;20.70;16.48;;;14.60;99.90;;;;;;5093932;28;20052;-66
2023/09/27 00:06:33;;;;;;;22.60;17.35;;;14.60;99.90;;;;;;5094025;28;20496;-66
2023/09/27 00:09:00;;;;;;;20.85;17.00;;;14.60;99.90;;;;;;5111770;28;20047;-65
2023/09/27 00:11:27;;;;;;;19.23;16.10;;;14.60;99.90;;;;;;5112116;28;20050;-66
2023/09/27 00:13:56;;;;;;;23.52;17.25;;;14.60;99.90;;;;;;5093769;28;20044;-66
2023/09/27 00:16:22;;;;;;;19.75;15.38;;;14.60;99.90;;;;;;5093673;28;20047;-65
2023/09/27 00:18:49;;;;;;;23.10;17.67;;;14.60;99.90;;;;;;5094033;28;20516;-66
2023/09/27 00:21:17;;;;;;;22.17;16.27;;;14.50;99.90;;;;;;5093646;28;20441;-66
2023/09/27 00:23:43;;;;;;;23.05;17.58;;;14.60;99.90;;;;;;5112021;28;20047;-66
2023/09/27 00:26:10;;;;;;;19.40;16.92;;;14.50;99.90;;;;;;5094086;28;20047;-66
2023/09/27 00:28:37;;;;;;;27.65;16.70;;;14.50;99.90;;;;;;5093553;28;20044;-66
2023/09/27 00:31:05;;;;;;;19.83;16.48;;;14.60;99.90;;;;;;5111973;28;20040;-66
2023/09/27 00:33:32;;;;;;;23.70;16.75;;;14.60;99.90;;;;;;5091418;28;20047;-66
2023/09/27 00:35:59;;;;;;;21.25;16.77;;;14.60;99.90;;;;;;5111385;28;20047;-66
2023/09/27 00:38:26;;;;;;;19.85;16.40;;;14.50;99.90;;;;;;5089884;28;20048;-66
2023/09/27 00:40:53;;;;;;;20.98;17.50;;;14.50;99.90;;;;;;5093814;28;20043;-66
2023/09/27 00:43:27;;;;;;;21.23;16.33;;;14.50;99.90;;;;;;5111469;28;20403;-66
2023/09/27 00:45:55;;;;;;;20.42;16.92;;;14.40;99.90;;;;;;5089280;28;20044;-66
2023/09/27 00:48:24;;;;;;;19.73;16.60;;;14.40;99.90;;;;;;5093305;28;20496;-66
2023/09/27 00:50:52;;;;;;;21.15;17.13;;;14.40;99.90;;;;;;5093115;28;20040;-66
2023/09/27 00:53:19;;;;;;;21.95;16.02;;;14.40;99.90;;;;;;5093662;28;20059;-66
2023/09/27 00:55:46;;;;;;;19.13;15.82;;;14.30;99.90;;;;;;5092549;28;20044;-66
2023/09/27 00:58:18;;;;;;;21.15;17.17;;;14.30;99.90;;;;;;5090933;28;20047;-66
2023/09/27 01:00:46;;;;;;;21.65;16.33;;;14.30;99.90;;;;;;5093661;28;20050;-65
2023/09/27 01:03:14;;;;;;;21.70;16.30;;;14.20;99.90;;;;;;5092719;28;20044;-65
2023/09/27 01:05:43;;;;;;;21.80;16.80;;;14.20;99.90;;;;;;5091156;28;20052;-65
2023/09/27 01:08:10;;;;;;;19.35;15.32;;;14.20;99.90;;;;;;5095050;28;20039;-65
2023/09/27 01:10:38;;;;;;;19.30;16.13;;;14.20;99.90;;;;;;5114832;28;20051;-65
2023/09/27 01:13:05;;;;;;;19.63;16.33;;;14.20;99.90;;;;;;5094651;28;20495;-65
2023/09/27 01:15:33;;;;;;;17.77;15.48;;;14.20;99.90;;;;;;5096227;28;20047;-66
2023/09/27 01:18:02;;;;;;;21.95;15.45;;;14.20;99.90;;;;;;5096568;28;20051;-66
2023/09/27 01:20:30;;;;;;;22.15;15.48;;;14.20;99.90;;;;;;5096614;28;20055;-65
2023/09/27 01:23:00;;;;;;;20.67;16.30;;;14.20;99.90;;;;;;5096716;28;20484;-66
2023/09/27 01:25:31;;;;;;;19.83;16.67;;;14.10;99.90;;;;;;5095709;28;20066;-66
2023/09/27 01:27:59;;;;;;;24.17;15.95;;;14.10;99.90;;;;;;5115317;28;20395;-66
2023/09/27 01:30:31;;;;;;;19.38;16.17;;;14.10;99.90;;;;;;5097057;28;20047;-66
2023/09/27 01:32:59;;;;;;;21.77;17.23;;;14.10;99.90;;;;;;5095856;28;20054;-66
2023/09/27 01:35:27;;;;;;;27.38;16.75;;;14.10;99.90;;;;;;5114856;28;20051;-66
2023/09/27 01:37:53;;;;;;;19.52;16.10;;;14.10;99.90;;;;;;5114798;28;20097;-65
2023/09/27 01:40:26;;;;;;;27.27;16.95;;;14.10;99.90;;;;;;5096375;28;20063;-65
2023/09/27 01:42:53;;;;;;;24.08;17.27;;;14.10;99.90;;;;;;5093098;28;20052;-67
2023/09/27 01:45:20;;;;;;;20.48;15.82;;;14.10;99.90;;;;;;5096342;28;20498;-66
2023/09/27 01:47:47;;;;;;;22.50;16.35;;;14.10;99.90;;;;;;5096116;28;20063;-66
2023/09/27 01:50:14;;;;;;;22.25;16.27;;;14.10;99.90;;;;;;5096646;28;20404;-66
2023/09/27 01:52:41;;;;;;;19.23;16.00;;;14.00;99.90;;;;;;5095662;28;20046;-66
2023/09/27 01:55:09;;;;;;;24.30;16.88;;;14.00;99.90;;;;;;5096619;28;20044;-66
2023/09/27 01:57:37;;;;;;;22.80;16.95;;;14.00;99.90;;;;;;5114385;28;20047;-66
2023/09/27 02:00:08;;;;;;;22.30;16.20;;;14.00;99.90;;;;;;5114111;28;20039;-66
2023/09/27 02:02:35;;;;;;;21.55;15.45;;;14.00;99.90;;;;;;5096124;28;20507;-66
2023/09/27 02:05:02;;;;;;;25.00;16.95;;;13.90;99.90;;;;;;5096106;28;20043;-66
2023/09/27 02:07:29;;;;;;;19.75;17.02;;;13.90;99.90;;;;;;5113766;28;20052;-66
2023/09/27 02:09:56;;;;;;;21.83;17.30;;;13.90;99.90;;;;;;5096467;28;20411;-66
2023/09/27 02:12:23;;;;;;;20.90;16.98;;;13.90;99.90;;;;;;5095988;28;20043;-65
2023/09/27 02:14:51;;;;;;;22.02;16.15;;;13.90;99.90;;;;;;5095742;28;20043;-66
2023/09/27 02:17:18;;;;;;;20.83;16.50;;;13.90;99.90;;;;;;5114263;28;20040;-66
2023/09/27 02:19:45;;;;;;;25.98;16.58;;;13.90;99.90;;;;;;5113900;28;20044;-66
2023/09/27 02:22:13;;;;;;;20.67;16.77;;;13.80;99.90;;;;;;5113479;28;20047;-66
2023/09/27 02:24:40;;;;;;;21.83;17.17;;;13.80;99.90;;;;;;5113957;28;20065;-67
2023/09/27 02:27:10;;;;;;;20.35;16.55;;;13.80;99.90;;;;;;5095914;28;20047;-67
2023/09/27 02:29:38;;;;;;;22.02;16.33;;;13.80;99.90;;;;;;5113689;28;20403;-67
2023/09/27 02:32:07;;;;;;;21.50;17.83;;;13.80;99.90;;;;;;5095625;28;20062;-67
2023/09/27 02:34:34;;;;;;;23.40;17.10;;;13.70;99.90;;;;;;5095873;28;20048;-66
2023/09/27 02:37:01;;;;;;;22.35;18.05;;;13.70;99.90;;;;;;5095263;28;20461;-66
2023/09/27 02:39:29;;;;;;;20.63;16.35;;;13.70;99.90;;;;;;5095763;28;20051;-66
2023/09/27 02:41:57;;;;;;;21.80;16.58;;;13.70;99.90;;;;;;5113105;28;20062;-66
2023/09/27 02:44:24;;;;;;;20.80;17.75;;;13.70;99.90;;;;;;5113585;28;20040;-65
2023/09/27 02:46:52;;;;;;;29.25;17.77;;;13.60;99.90;;;;;;5095308;28;20116;-66
2023/09/27 02:49:21;;;;;;;23.67;18.48;;;13.60;99.90;;;;;;5095091;28;20051;-66
2023/09/27 02:51:48;;;;;;;27.15;17.98;;;13.60;99.90;;;;;;5095064;28;20522;-66
2023/09/27 02:54:15;;;;;;;25.35;18.63;;;13.50;99.90;;;;;;5095480;28;20545;-67
2023/09/27 02:56:43;;;;;;;21.35;18.38;;;13.50;99.90;;;;;;5094605;28;20063;-67
2023/09/27 02:59:10;;;;;;;24.02;19.02;;;13.50;99.90;;;;;;5095106;28;20130;-67
2023/09/27 03:01:40;;;;;;;22.60;18.92;;;13.50;99.90;;;;;;5113498;28;20050;-66
2023/09/27 03:04:07;;;;;;;21.77;18.50;;;13.50;99.90;;;;;;5094657;28;20062;-66
2023/09/27 03:06:37;;;;;;;21.98;17.92;;;13.50;99.90;;;;;;5113335;28;20127;-67
2023/09/27 03:09:05;;;;;;;22.00;17.70;;;13.40;99.90;;;;;;5094872;28;20128;-66
2023/09/27 03:11:33;;;;;;;25.77;19.20;;;13.40;99.90;;;;;;5094456;28;20042;-66
2023/09/27 03:14:00;;;;;;;22.50;18.48;;;13.40;99.90;;;;;;5095080;28;20166;-66
2023/09/27 03:16:27;;;;;;;25.33;20.15;;;13.40;99.90;;;;;;5095125;28;20055;-66
2023/09/27 03:18:55;;;;;;;22.98;18.35;;;13.40;99.90;;;;;;5094435;28;20498;-66
2023/09/27 03:21:22;;;;;;;22.58;18.10;;;13.40;99.90;;;;;;5094863;28;20108;-66
2023/09/27 03:23:53;;;;;;;26.08;19.13;;;13.40;99.90;;;;;;5094578;28;20058;-66
2023/09/27 03:26:20;;;;;;;25.05;17.13;;;13.40;99.90;;;;;;5094146;28;20570;-66
2023/09/27 03:28:47;;;;;;;25.90;18.45;;;13.40;99.90;;;;;;5112514;28;20044;-66
2023/09/27 03:31:14;;;;;;;23.02;18.90;;;13.50;99.90;;;;;;5084243;28;20054;-66
2023/09/27 03:33:41;;;;;;;26.58;19.63;;;13.50;99.90;;;;;;5104581;28;20063;-65
2023/09/27 03:36:08;;;;;;;21.55;17.65;;;13.50;99.90;;;;;;5088796;28;20502;-64
2023/09/27 03:38:36;;;;;;;20.27;14.77;;;13.50;99.90;;;;;;5088587;28;20500;-65
2023/09/27 03:41:08;;;;;;;27.85;17.67;;;13.60;99.90;;;;;;5086117;28;20127;-65
2023/09/27 03:43:35;;;;;;;20.05;16.02;;;13.80;99.90;;;;;;5093605;28;20051;-64
2023/09/27 03:46:03;;;;;;;25.20;17.95;;;13.90;99.90;;;;;;5108713;28;20055;-65
2023/09/27 03:48:30;;;;;;;20.83;17.05;;;14.00;99.90;;;;;;5090811;28;20126;-65
2023/09/27 03:50:58;;;;;;;22.77;16.85;;;13.90;99.90;;;;;;5087612;28;20044;-64
2023/09/27 03:53:25;;;;;;;22.10;16.73;;;13.90;99.90;;;;;;5085967;28;20040;-66
2023/09/27 03:55:52;;;;;;;21.15;16.27;;;13.80;99.90;;;;;;5086976;28;20055;-66
2023/09/27 03:58:21;;;;;;;23.08;17.88;;;13.90;99.90;;;;;;5088151;28;20043;-64
2023/09/27 04:00:48;;;;;;;23.25;19.17;;;13.90;99.90;;;;;;5090463;28;20061;-65
2023/09/27 04:03:15;;;;;;;19.00;15.20;;;13.90;99.90;;;;;;5086453;28;20048;-64
2023/09/27 04:05:42;;;;;;;22.98;17.88;;;14.00;99.90;;;;;;5091769;28;20051;-65
2023/09/27 04:08:11;;;;;;;20.38;15.77;;;14.00;99.90;;;;;;5088031;28;20050;-65
2023/09/27 04:10:38;;;;;;;20.52;15.63;;;14.10;99.90;;;;;;5091006;28;20044;-65
2023/09/27 04:13:05;;;;;;;22.77;17.23;;;14.10;99.90;;;;;;5086506;28;20119;-65
2023/09/27 04:15:36;;;;;;;30.73;18.90;;;14.10;99.90;;;;;;5091639;28;20055;-64
2023/09/27 04:18:03;;;;;;;25.05;19.02;;;14.00;99.90;;;;;;5087429;28;20048;-65
2023/09/27 04:20:31;;;;;;;23.48;17.88;;;13.90;99.90;;;;;;5088445;28;20048;-65
2023/09/27 04:22:58;;;;;;;23.77;17.50;;;13.80;99.90;;;;;;5088296;28;20048;-65
2023/09/27 04:25:25;;;;;;;23.70;18.27;;;13.80;99.90;;;;;;5090832;28;20051;-65
2023/09/27 04:27:53;;;;;;;21.75;17.83;;;13.70;99.90;;;;;;5106987;28;20490;-65
2023/09/27 04:30:22;;;;;;;27.10;18.88;;;13.70;99.90;;;;;;5090746;28;20052;-65
2023/09/27 04:32:51;;;;;;;22.55;18.50;;;13.70;99.90;;;;;;5107822;28;20067;-64
2023/09/27 04:35:19;;;;;;;24.95;18.50;;;13.70;99.90;;;;;;5090549;28;20495;-65
2023/09/27 04:37:46;;;;;;;28.00;19.65;;;13.60;99.90;;;;;;5086276;28;20050;-65
2023/09/27 04:40:14;;;;;;;24.83;20.35;;;13.50;99.90;;;;;;5088452;28;20047;-65
2023/09/27 04:42:42;;;;;;;23.17;19.13;;;13.40;99.90;;;;;;5094670;28;20388;-65
2023/09/27 04:45:11;;;;;;;25.45;19.08;;;13.30;99.90;;;;;;5093230;28;20058;-65
2023/09/27 04:47:38;;;;;;;24.25;19.88;;;13.30;99.90;;;;;;5093846;28;20051;-63
2023/09/27 04:50:09;;;;;;;29.45;21.55;;;13.20;99.90;;;;;;5086325;28;20130;-65
2023/09/27 04:52:36;;;;;;;26.08;21.05;;;13.10;99.90;;;;;;5091285;28;20537;-64
2023/09/27 04:55:04;;;;;;;25.02;19.75;;;13.10;99.90;;;;;;5094254;28;20048;-65
2023/09/27 04:57:31;;;;;;;25.40;19.55;;;13.00;99.90;;;;;;5111084;28;20059;-67
2023/09/27 04:59:58;;;;;;;23.73;20.75;;;13.00;99.90;;;;;;5092573;28;20043;-66
2023/09/27 05:02:25;;;;;;;24.33;19.83;;;13.00;99.90;;;;;;5096060;28;20122;-68
2023/09/27 05:04:52;;;;;;;24.60;20.70;;;12.90;99.90;;;;;;5089189;28;20087;-66
2023/09/27 05:07:21;;;;;;;26.33;21.83;;;12.90;99.90;;;;;;5111671;28;20055;-64
2023/09/27 05:09:48;;;;;;;25.90;19.92;;;12.90;99.90;;;;;;5088950;28;20044;-64
2023/09/27 05:12:15;;;;;;;27.00;21.05;;;12.90;99.90;;;;;;5112748;28;20514;-64
2023/09/27 05:14:42;;;;;;;30.05;22.25;;;12.90;99.90;;;;;;5089531;28;20120;-64
2023/09/27 05:17:10;;;;;;;30.42;22.20;;;12.90;99.90;;;;;;5092721;28;20050;-65
2023/09/27 05:19:37;;;;;;;27.02;22.52;;;12.80;99.90;;;;;;5093617;28;20051;-66
2023/09/27 05:22:04;;;;;;;28.67;21.45;;;12.80;99.90;;;;;;5091057;28;20043;-65
2023/09/27 05:24:38;;;;;;;31.33;23.42;;;12.80;99.90;;;;;;5092983;28;20392;-66
2023/09/27 05:27:07;;;;;;;30.52;23.65;;;12.80;99.90;;;;;;5094844;27;20100;-65
2023/09/27 05:29:34;;;;;;;29.40;22.77;;;12.80;99.90;;;;;;5095038;28;20477;-64
2023/09/27 05:32:01;;;;;;;29.20;22.52;;;12.80;99.90;;;;;;5095074;28;20047;-65
2023/09/27 05:34:30;;;;;;;29.90;22.27;;;12.80;99.90;;;;;;5096334;28;20576;-65
2023/09/27 05:36:57;;;;;;;27.27;22.17;;;12.80;99.90;;;;;;5096082;28;20134;-64
2023/09/27 05:39:24;;;;;;;30.10;22.73;;;12.90;99.90;;;;;;5096093;28;20618;-64
2023/09/27 05:41:52;;;;;;;30.60;22.92;;;12.90;99.90;;;;;;5095587;28;20040;-66
2023/09/27 05:44:19;;;;;;;30.88;24.17;;;12.80;99.90;;;;;;5094482;28;20059;-66
2023/09/27 05:46:46;;;;;;;28.60;22.73;;;12.90;99.90;;;;;;5096136;28;20062;-65
2023/09/27 05:49:14;;;;;;;29.10;23.30;;;12.90;99.90;;;;;;5096707;28;20407;-63
2023/09/27 05:51:41;;;;;;;32.70;23.25;;;13.00;99.90;;;;;;5096395;28;20056;-65
2023/09/27 05:54:08;;;;;;;28.40;21.92;;;13.00;99.90;;;;;;5095559;28;20040;-65
2023/09/27 05:56:37;;;;;;;27.27;22.30;;;13.10;99.90;;;;;;5095986;28;20062;-65
2023/09/27 05:59:08;;;;;;;30.30;23.33;;;13.10;99.90;;;;;;5097168;28;20055;-65
2023/09/27 06:01:35;;;;;;;27.65;21.77;;;13.20;99.90;;;;;;5096227;28;20054;-64
2023/09/27 06:04:03;;;;;;;29.48;22.60;;;13.20;99.90;;;;;;5095741;28;20498;-65
2023/09/27 06:06:30;;;;;;;28.38;22.90;;;13.30;99.90;;;;;;5095712;28;20059;-65
2023/09/27 06:08:58;;;;;;;30.20;22.63;;;13.40;99.90;;;;;;5094073;28;20075;-64
2023/09/27 06:11:25;;;;;;;25.92;21.45;;;13.40;99.90;;;;;;5095984;28;20048;-65
2023/09/27 06:13:52;;;;;;;31.77;22.50;;;13.40;99.90;;;;;;5095469;28;20048;-65
2023/09/27 06:16:21;;;;;;;30.40;23.33;;;13.50;99.90;;;;;;5095639;28;20044;-65
2023/09/27 06:18:48;;;;;;;31.98;23.17;;;13.50;99.90;;;;;;5114165;28;20448;-65
2023/09/27 06:21:15;;;;;;;28.13;22.58;;;13.50;99.90;;;;;;5095137;28;20063;-65
2023/09/27 06:23:42;;;;;;;28.63;22.75;;;13.60;99.90;;;;;;5095823;28;20127;-65
2023/09/27 06:26:09;;;;;;;27.67;22.70;;;13.60;99.90;;;;;;5095485;28;20047;-65
2023/09/27 06:28:38;;;;;;;28.23;22.45;;;13.70;99.90;;;;;;5095409;28;20047;-65
2023/09/27 06:31:06;;;;;;;30.45;23.83;;;13.70;99.90;;;;;;5095609;28;20071;-65
2023/09/27 06:33:38;;;;;;;29.75;22.90;;;13.80;99.90;;;;;;5095412;28;20544;-64
2023/09/27 06:36:07;;;;;;;28.77;22.75;;;13.80;99.90;;;;;;5094999;28;20135;-65
2023/09/27 06:38:35;;;;;;;30.50;22.83;;;13.90;99.90;;;;;;5111676;28;20070;-65
2023/09/27 06:41:02;;;;;;;29.50;23.10;;;13.90;99.90;;;;;;5094869;28;20055;-65
2023/09/27 06:43:31;;;;;;;28.80;23.15;;;14.00;99.90;;;;;;5113489;28;20039;-65
2023/09/27 06:45:58;;;;;;;30.75;22.15;;;14.10;99.90;;;;;;5095220;28;20052;-65
2023/09/27 06:48:25;;;;;;;30.85;22.08;;;14.10;99.90;;;;;;5094849;28;20415;-65
2023/09/27 06:50:54;;;;;;;26.05;21.65;;;14.20;99.90;;;;;;5093154;28;20109;-65
2023/09/27 06:53:21;;;;;;;28.48;21.85;;;14.40;99.90;;;;;;5113294;28;20133;-64
2023/09/27 06:55:49;;;;;;;32.15;21.95;;;14.50;99.90;;;;;;5094475;28;20056;-65
2023/09/27 06:58:22;;;;;;;31.35;22.52;;;14.70;99.90;;;;;;5095367;28;20035;-65
2023/09/27 07:00:50;;;;;;;27.25;20.92;;;14.90;99.90;;;;;;5090651;28;20543;-65
2023/09/27 07:03:19;;;;;;;24.60;19.83;;;15.40;99.90;;;;;;5092620;28;20047;-65
2023/09/27 07:05:46;;;;;;;25.55;19.80;;;16.00;99.90;;;;;;5089495;28;20050;-65
2023/09/27 07:08:15;;;;;;;23.17;20.13;;;16.50;99.90;;;;;;5092367;28;20507;-65
2023/09/27 07:10:42;;;;;;;23.02;18.67;;;16.80;99.90;;;;;;5094294;28;20043;-65
2023/09/27 07:13:09;;;;;;;22.50;18.70;;;17.00;99.90;;;;;;5112881;28;20050;-65
2023/09/27 07:15:36;;;;;;;24.17;19.08;;;17.10;99.90;;;;;;5094185;28;20051;-65
2023/09/27 07:18:04;;;;;;;21.52;13.25;;;17.40;99.90;;;;;;5093882;28;20138;-64
2023/09/27 07:20:34;;;;;;;20.98;17.38;;;17.60;99.90;;;;;;5094870;28;20047;-64
2023/09/27 07:23:04;;;;;;;20.63;16.85;;;17.90;99.90;;;;;;5096245;28;20044;-65
2023/09/27 07:25:35;;;;;;;19.45;15.77;;;18.10;99.90;;;;;;5096823;28;20105;-64
2023/09/27 07:28:04;;;;;;;17.30;13.75;;;18.80;99.90;;;;;;5095861;28;20123;-65
2023/09/27 07:30:33;;;;;;;27.77;17.67;;;19.30;99.90;;;;;;5093834;28;20078;-65
2023/09/27 07:33:03;;;;;;;20.40;16.58;;;19.40;99.90;;;;;;5094374;28;20067;-64
2023/09/27 07:35:33;;;;;;;23.42;17.35;;;19.10;99.90;;;;;;5094422;28;20476;-65
2023/09/27 07:38:00;;;;;;;20.55;17.67;;;18.60;99.90;;;;;;5112411;28;20093;-65
2023/09/27 07:40:28;;;;;;;18.83;16.75;;;18.40;99.90;;;;;;5093530;28;20703;-64
2023/09/27 07:42:56;;;;;;;21.02;17.42;;;18.20;99.90;;;;;;5110271;28;20457;-65
2023/09/27 07:45:27;;;;;;;23.80;18.02;;;18.10;99.90;;;;;;5093750;28;20055;-64
2023/09/27 07:47:56;;;;;;;21.45;17.40;;;18.10;99.90;;;;;;5094508;28;20051;-65
2023/09/27 07:50:26;;;;;;;21.70;16.92;;;18.20;99.90;;;;;;5110246;28;20121;-65
2023/09/27 07:52:54;;;;;;;;;;;18.30;99.90;;;;;;5094046;28;20066;-65
2023/09/27 07:55:22;;;;;;;21.10;17.40;;;18.40;99.90;;;;;;5094364;28;20537;-65
2023/09/27 07:57:49;;;;;;;19.50;16.35;;;18.80;99.90;;;;;;5097014;28;20058;-65
2023/09/27 08:00:19;;;;;;;19.45;15.88;;;19.60;99.90;;;;;;5111825;28;20052;-64
2023/09/27 08:02:46;;;;;;;20.90;17.70;;;20.40;99.90;;;;;;5096855;28;20044;-64
2023/09/27 08:05:16;;;;;;;19.20;15.20;;;21.20;99.90;;;;;;5093703;28;20346;-65
2023/09/27 08:07:45;;;;;;;17.40;15.45;;;21.70;99.90;;;;;;5095164;28;20445;-65
2023/09/27 08:10:12;;;;;;;18.02;15.50;;;22.30;99.90;;;;;;5092657;28;20044;-66
2023/09/27 08:12:39;;;;;;;19.40;15.00;;;23.00;99.90;;;;;;5111318;28;20054;-65
2023/09/27 08:15:08;;;;;;;17.80;15.68;;;23.40;99.90;;;;;;5091858;28;20126;-65
2023/09/27 08:17:36;;;;;;;15.93;14.23;;;23.70;99.90;;;;;;5091533;28;20051;-66
2023/09/27 08:20:08;;;;;;;16.35;13.85;;;24.20;99.90;;;;;;5093119;28;20044;-64
2023/09/27 08:22:35;;;;;;;18.20;14.38;;;25.00;99.90;;;;;;5093972;28;20491;-66
2023/09/27 08:25:04;;;;;;;15.65;13.70;;;25.60;99.90;;;;;;5091963;28;20052;-64
2023/09/27 08:27:31;;;;;;;19.85;13.52;;;26.00;99.90;;;;;;5093403;28;20043;-66
2023/09/27 08:29:58;;;;;;;17.48;13.80;;;25.80;99.90;;;;;;5092703;28;20472;-64
2023/09/27 08:32:25;;;;;;;18.83;14.02;;;25.80;99.90;;;;;;5093857;28;20048;-66
2023/09/27 08:34:53;;;;;;;15.43;13.20;;;25.60;99.90;;;;;;5092934;28;20036;-65
2023/09/27 08:37:20;;;;;;;16.60;13.85;;;25.70;99.90;;;;;;5089293;28;20496;-65
2023/09/27 08:39:47;;;;;;;15.15;13.05;;;25.70;99.90;;;;;;5093620;28;20039;-65
2023/09/27 08:42:14;;;;;;;16.58;13.20;;;25.70;99.90;;;;;;5092978;28;20498;-65
2023/09/27 08:44:41;;;;;;;14.80;13.25;;;26.30;99.90;;;;;;5093561;28;20092;-66
2023/09/27 08:47:10;;;;;;;15.00;13.20;;;26.50;99.90;;;;;;5111479;28;20453;-64
2023/09/27 08:49:37;;;;;;;14.68;12.65;;;26.50;99.90;;;;;;5093235;28;20044;-64
2023/09/27 08:52:08;;;;;;;15.98;13.50;;;26.40;99.90;;;;;;5093696;28;20047;-64
2023/09/27 08:54:37;;;;;;;14.38;12.35;;;26.60;99.90;;;;;;5091527;28;20047;-65
2023/09/27 08:57:05;;;;;;;17.13;12.93;;;26.80;99.90;;;;;;5111218;28;20406;-65
2023/09/27 08:59:33;;;;;;;16.73;12.80;;;27.00;99.90;;;;;;5092377;28;20093;-65
2023/09/27 09:02:02;;;;;;;13.90;12.38;;;27.80;99.90;;;;;;5088614;28;20056;-65
2023/09/27 09:04:29;;;;;;;13.60;11.73;;;27.90;99.90;;;;;;5111867;28;20126;-65
2023/09/27 09:06:57;;;;;;;16.63;12.95;;;27.70;99.90;;;;;;5091914;28;20052;-65
2023/09/27 09:09:26;;;;;;;14.82;12.02;;;27.60;99.90;;;;;;5094218;28;20571;-65
2023/09/27 09:11:58;;;;;;;14.35;12.25;;;27.30;99.90;;;;;;5093553;28;20054;-65
2023/09/27 09:14:39;;;;;;;16.75;12.25;;;27.50;99.90;;;;;;5091800;28;20117;-65
2023/09/27 09:17:08;;;;;;;13.57;11.32;;;27.60;99.20;;;;;;5092731;28;20450;-65
2023/09/27 09:19:38;;;;;;;13.95;11.32;;;28.00;99.90;;;;;;5093508;28;20056;-65
2023/09/27 09:22:08;;;;;;;12.32;10.88;;;28.50;99.20;;;;;;5093427;28;20047;-65
2023/09/27 09:24:37;;;;;;;16.08;11.40;;;28.30;98.70;;;;;;5092926;28;20048;-65
2023/09/27 09:27:08;;;;;;;12.15;9.63;;;27.50;99.70;;;;;;5092903;28;20047;-66
2023/09/27 09:29:57;;;;;;;15.73;10.27;;;27.40;99.90;;;;;;5091762;28;20048;-65
2023/09/27 09:32:25;;;;;;;13.48;10.35;;;27.70;99.40;;;;;;5107459;28;20047;-66
2023/09/27 09:34:54;;;;;;;12.68;10.70;;;27.50;99.90;;;;;;5095945;28;20075;-66
2023/09/27 09:37:22;;;;;;;13.00;9.13;;;27.70;99.80;;;;;;5094448;28;20063;-66
2023/09/27 09:39:51;;;;;;;12.02;8.07;;;27.80;99.50;;;;;;5096789;28;20403;-66
2023/09/27 09:42:32;;;;;;;12.05;8.43;;;28.10;99.10;;;;;;5096776;28;20048;-68
2023/09/27 09:45:05;;;;;;;12.23;9.35;;;28.00;98.00;;;;;;5095834;28;20044;-66
2023/09/27 09:47:34;;;;;;;10.45;7.68;;;27.80;98.50;;;;;;5096569;28;20420;-65
2023/09/27 09:50:02;;;;;;;12.02;8.55;;;27.80;99.10;;;;;;5097086;28;20126;-65
2023/09/27 09:52:32;;;;;;;11.57;8.15;;;28.00;98.80;;;;;;5096256;28;20051;-64
2023/09/27 09:55:02;;;;;;;15.55;10.52;;;27.80;98.60;;;;;;5115336;28;20076;-65
2023/09/27 09:57:35;;;;;;;13.05;9.13;;;27.60;98.90;;;;;;5097063;28;20504;-65
2023/09/27 10:00:11;;;;;;;14.55;9.02;;;27.50;98.50;;;;;;5095905;28;20130;-66
2023/09/27 10:02:47;;;;;;;17.27;9.93;;;27.10;99.20;;;;;;5097932;28;20043;-65
2023/09/27 10:05:15;;;;;;;13.93;8.32;;;26.60;99.70;;;;;;5092423;28;20873;-67
2023/09/27 10:07:44;;;;;;;10.70;7.50;;;26.20;99.90;;;;;;5114288;28;20046;-64
2023/09/27 10:10:13;;;;;;;10.35;7.65;;;25.80;99.90;;;;;;5094207;28;20518;-65
2023/09/27 10:12:42;;;;;;;12.10;7.85;;;25.50;99.90;;;;;;5095500;28;20126;-65
2023/09/27 10:15:10;;;;;;;11.10;7.47;;;25.20;99.90;;;;;;5095712;28;20526;-65
2023/09/27 10:17:36;;;;;;;13.18;7.03;;;25.10;99.90;;;;;;5093899;28;20039;-66
2023/09/27 10:20:14;;;;;;;11.98;7.07;;;25.00;99.90;;;;;;5095451;28;20400;-65
2023/09/27 10:22:42;;;;;;;9.77;6.80;;;25.10;99.90;;;;;;5096084;28;20108;-65
2023/09/27 10:25:32;;;;;;;11.52;6.53;;;25.60;99.90;;;;;;5095910;28;20047;-65
2023/09/27 10:28:10;;;;;;;13.15;6.80;;;25.80;99.90;;;;;;5093370;28;20044;-65
2023/09/27 10:31:06;;;;;;;8.80;4.88;;;25.50;99.90;;;;;;5094855;28;20079;-65
2023/09/27 10:33:34;;;;;;;9.30;4.93;;;25.10;99.90;;;;;;5110743;28;20047;-65
2023/09/27 10:36:30;;;;;;;12.70;5.22;;;24.80;99.90;;;;;;5095699;28;20039;-66
2023/09/27 10:39:03;;;;;;;7.22;4.28;;;24.40;99.90;;;;;;5095111;28;20039;-65
2023/09/27 10:41:48;;;;;;;9.73;4.10;;;24.10;99.90;;;;;;5094112;28;20127;-65
2023/09/27 10:44:29;;;;;;;8.10;4.15;;;23.90;99.90;;;;;;5082969;28;20055;-64
2023/09/27 10:46:56;;;;;;;7.00;4.20;;;23.70;99.90;;;;;;5084648;28;20047;-65
2023/09/27 10:49:25;;;;;;;7.53;4.30;;;23.60;99.90;;;;;;5088529;28;20070;-64
2023/09/27 10:51:53;;;;;;;10.80;4.22;;;23.60;99.90;;;;;;5095559;28;20487;-65
2023/09/27 10:54:22;;;;;;;10.95;3.80;;;23.60;99.90;;;;;;5107575;28;20067;-65
2023/09/27 10:56:53;;;;;;;7.28;4.20;;;23.50;99.90;;;;;;5093721;28;20101;-66
2023/09/27 10:59:27;;;;;;;7.50;3.78;;;23.20;99.90;;;;;;5092356;28;20062;-65
2023/09/27 11:01:55;;;;;;;5.55;3.28;;;23.30;99.90;;;;;;5109917;28;20407;-65
2023/09/27 11:04:23;;;;;;;7.50;3.65;;;23.10;99.90;;;;;;5092351;28;20055;-64
2023/09/27 11:06:50;;;;;;;6.60;3.25;;;23.00;99.90;;;;;;5093359;28;20047;-65
2023/09/27 11:09:19;;;;;;;10.85;4.18;;;22.90;99.90;;;;;;5094587;28;20055;-65
2023/09/27 11:11:48;;;;;;;6.13;3.27;;;22.80;99.90;;;;;;5098525;28;20561;-65
2023/09/27 11:14:26;;;;;;;8.38;3.47;;;22.80;99.90;;;;;;5097965;28;20544;-65
2023/09/27 11:16:53;;;;;;;7.05;2.92;;;22.70;99.90;;;;;;5096540;28;20043;-65
2023/09/27 11:19:28;;;;;;;6.78;3.30;;;22.80;99.90;;;;;;5097584;28;20048;-64
2023/09/27 11:21:55;;;;;;;7.30;3.53;;;22.80;99.90;;;;;;5109457;28;20089;-65
2023/09/27 11:24:23;;;;;;;8.98;3.58;;;22.80;99.90;;;;;;5091188;28;20506;-63
2023/09/27 11:26:50;;;;;;;7.35;3.47;;;22.80;99.90;;;;;;5094463;28;20491;-63
2023/09/27 11:29:25;;;;;;;6.55;3.42;;;22.80;99.90;;;;;;5094338;28;20055;-64
2023/09/27 11:31:57;;;;;;;7.07;3.30;;;22.90;99.90;;;;;;5092181;28;20093;-65
2023/09/27 11:34:24;;;;;;;5.22;3.38;;;22.80;99.90;;;;;;5094591;28;20036;-64
2023/09/27 11:36:52;;;;;;;6.30;3.63;;;22.80;99.90;;;;;;5094133;28;20059;-64
2023/09/27 11:39:20;;;;;;;7.63;3.00;;;22.80;99.90;;;;;;5094499;28;20055;-64
2023/09/27 11:41:48;;;;;;;7.82;3.65;;;22.80;99.90;;;;;;5094614;28;20048;-64
2023/09/27 11:44:20;;;;;;;9.43;3.90;;;22.80;99.90;;;;;;5093187;28;20048;-64
2023/09/27 11:46:49;;;;;;;6.65;3.30;;;22.80;99.90;;;;;;5090570;28;20043;-64
2023/09/27 11:49:17;;;;;;;5.32;3.22;;;22.80;99.90;;;;;;5091991;28;20457;-64
2023/09/27 11:51:44;;;;;;;5.45;3.60;;;22.80;99.90;;;;;;5091658;28;20097;-64
2023/09/27 11:54:12;;;;;;;7.40;3.65;;;22.90;99.90;;;;;;5112109;28;20039;-64
2023/09/27 11:56:40;;;;;;;6.75;3.05;;;23.10;99.90;;;;;;5093577;28;20131;-65
2023/09/27 11:59:10;;;;;;;8.98;3.42;;;23.30;99.90;;;;;;5111954;28;20051;-64
2023/09/27 12:01:39;;;;;;;6.43;3.28;;;23.40;99.90;;;;;;5112302;28;20039;-64
2023/09/27 12:04:06;;;;;;;6.50;3.38;;;23.60;99.90;;;;;;5093998;28;20042;-64
2023/09/27 12:06:33;;;;;;;10.23;3.10;;;24.00;99.90;;;;;;5093726;28;20054;-64
2023/09/27 12:09:00;;;;;;;7.07;3.15;;;25.10;99.90;;;;;;5094200;28;20047;-64
2023/09/27 12:11:27;;;;;;;4.80;2.70;;;26.50;99.90;;;;;;5092050;28;20380;-64
2023/09/27 12:13:53;;;;;;;8.93;3.33;;;27.20;99.90;;;;;;5093557;28;20047;-64
2023/09/27 12:16:21;;;;;;;7.47;3.28;;;26.90;99.90;;;;;;5109979;28;20077;-64
2023/09/27 12:18:49;;;;;;;7.35;3.40;;;27.10;99.90;;;;;;5093047;28;20507;-65
2023/09/27 12:21:16;;;;;;;8.25;2.72;;;27.80;99.90;;;;;;5094052;28;20058;-65
2023/09/27 12:23:45;;;;;;;7.90;3.22;;;28.50;99.90;;;;;;5093454;28;20500;-65
2023/09/27 12:26:12;;;;;;;11.38;3.03;;;29.00;99.60;;;;;;5111436;28;20058;-65
2023/09/27 12:28:39;;;;;;;7.25;3.22;;;28.90;99.10;;;;;;5093409;28;20483;-65
2023/09/27 12:31:08;;;;;;;6.90;3.00;;;28.40;99.10;;;;;;5094480;28;20507;-65
2023/09/27 12:33:36;;;;;;;4.15;2.95;;;29.00;98.70;;;;;;5111283;28;20241;-66
2023/09/27 12:36:05;;;;;;;6.82;2.92;;;28.90;98.80;;;;;;5093616;28;20043;-65
2023/09/27 12:38:32;;;;;;;5.00;2.90;;;28.30;98.60;;;;;;5091721;28;20040;-64